sensor_id;sensor_type;location;lat;lon;timestamp;P1;durP1;ratioP1;P2;durP2;ratioP2
6529;SDS011;3298;42.688;23.366;2022-09-03T00:01:28;7.50;;;4.90;;
6529;SDS011;3298;42.688;23.366;2022-09-03T00:04:04;4.73;;;4.33;;
6529;SDS011;3298;42.688;23.366;2022-09-03T00:06:38;5.30;;;4.67;;
6529;SDS011;3298;42.688;23.366;2022-09-03T00:09:11;4.30;;;4.00;;
6529;SDS011;3298;42.688;23.366;2022-09-03T00:11:44;4.37;;;4.03;;
6529;SDS011;3298;42.688;23.366;2022-09-03T00:14:17;4.77;;;4.47;;
6529;SDS011;3298;42.688;23.366;2022-09-03T00:16:48;5.53;;;3.97;;
6529;SDS011;3298;42.688;23.366;2022-09-03T00:19:21;4.67;;;4.37;;
6529;SDS011;3298;42.688;23.366;2022-09-03T00:21:53;4.77;;;4.37;;
6529;SDS011;3298;42.688;23.366;2022-09-03T00:24:23;8.77;;;4.57;;
6529;SDS011;3298;42.688;23.366;2022-09-03T00:26:56;4.63;;;4.00;;
6529;SDS011;3298;42.688;23.366;2022-09-03T00:29:27;4.50;;;4.10;;
6529;SDS011;3298;42.688;23.366;2022-09-03T00:32:01;4.30;;;4.00;;
6529;SDS011;3298;42.688;23.366;2022-09-03T00:34:35;4.80;;;4.20;;
6529;SDS011;3298;42.688;23.366;2022-09-03T00:37:06;4.67;;;4.03;;
6529;SDS011;3298;42.688;23.366;2022-09-03T00:39:34;4.60;;;4.30;;
6529;SDS011;3298;42.688;23.366;2022-09-03T00:42:08;4.87;;;4.40;;
6529;SDS011;3298;42.688;23.366;2022-09-03T00:44:52;4.33;;;4.03;;
6529;SDS011;3298;42.688;23.366;2022-09-03T00:47:39;4.03;;;3.73;;
6529;SDS011;3298;42.688;23.366;2022-09-03T00:50:19;4.20;;;3.90;;
6529;SDS011;3298;42.688;23.366;2022-09-03T00:52:55;4.47;;;4.07;;
6529;SDS011;3298;42.688;23.366;2022-09-03T00:55:31;6.93;;;3.70;;
6529;SDS011;3298;42.688;23.366;2022-09-03T00:58:17;4.40;;;4.10;;
6529;SDS011;3298;42.688;23.366;2022-09-03T01:00:55;3.70;;;3.23;;
6529;SDS011;3298;42.688;23.366;2022-09-03T01:03:24;4.37;;;4.07;;
6529;SDS011;3298;42.688;23.366;2022-09-03T01:06:08;4.37;;;4.03;;
6529;SDS011;3298;42.688;23.366;2022-09-03T01:08:48;4.13;;;3.60;;
6529;SDS011;3298;42.688;23.366;2022-09-03T01:11:30;4.57;;;4.30;;
6529;SDS011;3298;42.688;23.366;2022-09-03T01:14:11;4.27;;;3.97;;
6529;SDS011;3298;42.688;23.366;2022-09-03T01:16:48;4.50;;;4.20;;
6529;SDS011;3298;42.688;23.366;2022-09-03T01:19:28;4.30;;;4.00;;
6529;SDS011;3298;42.688;23.366;2022-09-03T01:22:21;7.13;;;3.80;;
6529;SDS011;3298;42.688;23.366;2022-09-03T01:28:02;3.90;;;3.50;;
6529;SDS011;3298;42.688;23.366;2022-09-03T01:30:39;4.43;;;4.13;;
6529;SDS011;3298;42.688;23.366;2022-09-03T01:33:12;4.90;;;4.50;;
6529;SDS011;3298;42.688;23.366;2022-09-03T01:35:46;7.60;;;4.10;;
6529;SDS011;3298;42.688;23.366;2022-09-03T01:38:19;4.73;;;4.20;;
6529;SDS011;3298;42.688;23.366;2022-09-03T01:40:56;4.57;;;4.27;;
6529;SDS011;3298;42.688;23.366;2022-09-03T01:43:49;4.93;;;4.63;;
6529;SDS011;3298;42.688;23.366;2022-09-03T01:46:29;5.47;;;4.53;;
6529;SDS011;3298;42.688;23.366;2022-09-03T01:49:05;4.77;;;4.27;;
6529;SDS011;3298;42.688;23.366;2022-09-03T01:51:45;4.20;;;3.90;;
6529;SDS011;3298;42.688;23.366;2022-09-03T01:54:16;4.83;;;4.40;;
6529;SDS011;3298;42.688;23.366;2022-09-03T01:57:00;4.87;;;4.47;;
6529;SDS011;3298;42.688;23.366;2022-09-03T01:59:42;5.00;;;4.33;;
6529;SDS011;3298;42.688;23.366;2022-09-03T02:02:19;4.70;;;4.30;;
6529;SDS011;3298;42.688;23.366;2022-09-03T02:04:55;4.93;;;4.53;;
6529;SDS011;3298;42.688;23.366;2022-09-03T02:07:25;4.90;;;4.43;;
6529;SDS011;3298;42.688;23.366;2022-09-03T02:09:57;5.00;;;4.50;;
6529;SDS011;3298;42.688;23.366;2022-09-03T02:12:24;5.43;;;4.97;;
6529;SDS011;3298;42.688;23.366;2022-09-03T02:14:52;4.53;;;4.23;;
6529;SDS011;3298;42.688;23.366;2022-09-03T02:17:20;4.80;;;4.50;;
6529;SDS011;3298;42.688;23.366;2022-09-03T02:19:47;5.47;;;4.97;;
6529;SDS011;3298;42.688;23.366;2022-09-03T02:22:14;4.70;;;4.07;;
6529;SDS011;3298;42.688;23.366;2022-09-03T02:24:41;4.73;;;4.43;;
6529;SDS011;3298;42.688;23.366;2022-09-03T02:27:09;4.97;;;4.67;;
6529;SDS011;3298;42.688;23.366;2022-09-03T02:29:35;6.70;;;5.23;;
6529;SDS011;3298;42.688;23.366;2022-09-03T02:32:04;5.07;;;4.63;;
6529;SDS011;3298;42.688;23.366;2022-09-03T02:34:31;5.17;;;4.73;;
6529;SDS011;3298;42.688;23.366;2022-09-03T02:36:57;6.87;;;4.83;;
6529;SDS011;3298;42.688;23.366;2022-09-03T02:39:24;4.60;;;4.30;;
6529;SDS011;3298;42.688;23.366;2022-09-03T02:41:53;5.07;;;4.57;;
6529;SDS011;3298;42.688;23.366;2022-09-03T02:44:28;6.30;;;5.33;;
6529;SDS011;3298;42.688;23.366;2022-09-03T02:46:59;6.30;;;4.73;;
6529;SDS011;3298;42.688;23.366;2022-09-03T02:49:28;5.30;;;4.80;;
6529;SDS011;3298;42.688;23.366;2022-09-03T02:51:56;5.50;;;5.10;;
6529;SDS011;3298;42.688;23.366;2022-09-03T02:54:25;5.77;;;5.27;;
6529;SDS011;3298;42.688;23.366;2022-09-03T02:56:52;5.93;;;5.20;;
6529;SDS011;3298;42.688;23.366;2022-09-03T02:59:19;6.13;;;5.53;;
6529;SDS011;3298;42.688;23.366;2022-09-03T03:01:47;5.63;;;5.13;;
6529;SDS011;3298;42.688;23.366;2022-09-03T03:04:14;5.93;;;5.43;;
6529;SDS011;3298;42.688;23.366;2022-09-03T03:06:42;6.07;;;5.57;;
6529;SDS011;3298;42.688;23.366;2022-09-03T03:09:09;5.60;;;5.10;;
6529;SDS011;3298;42.688;23.366;2022-09-03T03:11:36;6.60;;;6.10;;
6529;SDS011;3298;42.688;23.366;2022-09-03T03:14:04;6.63;;;5.23;;
6529;SDS011;3298;42.688;23.366;2022-09-03T03:16:31;6.40;;;5.73;;
6529;SDS011;3298;42.688;23.366;2022-09-03T03:18:58;6.03;;;5.53;;
6529;SDS011;3298;42.688;23.366;2022-09-03T03:21:25;5.87;;;5.37;;
6529;SDS011;3298;42.688;23.366;2022-09-03T03:23:53;7.33;;;5.50;;
6529;SDS011;3298;42.688;23.366;2022-09-03T03:26:20;6.27;;;5.67;;
6529;SDS011;3298;42.688;23.366;2022-09-03T03:28:48;6.00;;;5.40;;
6529;SDS011;3298;42.688;23.366;2022-09-03T03:31:18;6.33;;;5.73;;
6529;SDS011;3298;42.688;23.366;2022-09-03T03:33:49;6.93;;;6.33;;
6529;SDS011;3298;42.688;23.366;2022-09-03T03:36:16;6.07;;;5.57;;
6529;SDS011;3298;42.688;23.366;2022-09-03T03:38:43;6.00;;;5.50;;
6529;SDS011;3298;42.688;23.366;2022-09-03T03:41:12;6.87;;;5.33;;
6529;SDS011;3298;42.688;23.366;2022-09-03T03:43:41;5.83;;;5.13;;
6529;SDS011;3298;42.688;23.366;2022-09-03T03:46:09;5.47;;;5.10;;
6529;SDS011;3298;42.688;23.366;2022-09-03T03:48:36;6.47;;;5.87;;
6529;SDS011;3298;42.688;23.366;2022-09-03T03:51:05;5.80;;;5.30;;
6529;SDS011;3298;42.688;23.366;2022-09-03T03:53:34;6.43;;;5.60;;
6529;SDS011;3298;42.688;23.366;2022-09-03T03:56:02;6.33;;;5.83;;
6529;SDS011;3298;42.688;23.366;2022-09-03T03:58:32;6.03;;;5.43;;
6529;SDS011;3298;42.688;23.366;2022-09-03T04:01:03;5.60;;;5.10;;
6529;SDS011;3298;42.688;23.366;2022-09-03T04:03:31;6.33;;;5.83;;
6529;SDS011;3298;42.688;23.366;2022-09-03T04:05:58;6.27;;;5.27;;
6529;SDS011;3298;42.688;23.366;2022-09-03T04:08:27;5.87;;;5.27;;
6529;SDS011;3298;42.688;23.366;2022-09-03T04:10:58;5.07;;;4.77;;
6529;SDS011;3298;42.688;23.366;2022-09-03T04:13:27;5.90;;;5.30;;
6529;SDS011;3298;42.688;23.366;2022-09-03T04:16:00;5.37;;;4.87;;
6529;SDS011;3298;42.688;23.366;2022-09-03T04:18:27;5.60;;;5.17;;
6529;SDS011;3298;42.688;23.366;2022-09-03T04:20:57;6.03;;;5.33;;
6529;SDS011;3298;42.688;23.366;2022-09-03T04:23:25;6.23;;;5.63;;
6529;SDS011;3298;42.688;23.366;2022-09-03T04:25:53;5.33;;;4.93;;
6529;SDS011;3298;42.688;23.366;2022-09-03T04:28:19;5.43;;;5.07;;
6529;SDS011;3298;42.688;23.366;2022-09-03T04:30:46;7.47;;;4.80;;
6529;SDS011;3298;42.688;23.366;2022-09-03T04:33:15;5.93;;;5.27;;
6529;SDS011;3298;42.688;23.366;2022-09-03T04:35:41;5.03;;;4.50;;
6529;SDS011;3298;42.688;23.366;2022-09-03T04:38:08;6.43;;;5.93;;
6529;SDS011;3298;42.688;23.366;2022-09-03T04:40:35;6.50;;;5.90;;
6529;SDS011;3298;42.688;23.366;2022-09-03T04:43:02;6.00;;;5.47;;
6529;SDS011;3298;42.688;23.366;2022-09-03T04:45:30;6.23;;;5.63;;
6529;SDS011;3298;42.688;23.366;2022-09-03T04:47:57;6.97;;;5.23;;
6529;SDS011;3298;42.688;23.366;2022-09-03T04:50:26;11.43;;;5.93;;
6529;SDS011;3298;42.688;23.366;2022-09-03T04:52:54;5.57;;;5.07;;
6529;SDS011;3298;42.688;23.366;2022-09-03T04:55:22;5.20;;;4.80;;
6529;SDS011;3298;42.688;23.366;2022-09-03T04:57:49;5.07;;;4.67;;
6529;SDS011;3298;42.688;23.366;2022-09-03T05:00:16;6.10;;;5.63;;
6529;SDS011;3298;42.688;23.366;2022-09-03T05:02:44;5.73;;;5.23;;
6529;SDS011;3298;42.688;23.366;2022-09-03T05:05:12;5.30;;;4.90;;
6529;SDS011;3298;42.688;23.366;2022-09-03T05:07:41;5.83;;;5.33;;
6529;SDS011;3298;42.688;23.366;2022-09-03T05:10:09;6.97;;;5.60;;
6529;SDS011;3298;42.688;23.366;2022-09-03T05:12:40;5.60;;;5.20;;
6529;SDS011;3298;42.688;23.366;2022-09-03T05:15:07;5.43;;;4.93;;
6529;SDS011;3298;42.688;23.366;2022-09-03T05:17:34;4.93;;;4.63;;
6529;SDS011;3298;42.688;23.366;2022-09-03T05:20:02;4.67;;;4.23;;
6529;SDS011;3298;42.688;23.366;2022-09-03T05:22:30;5.40;;;5.00;;
6529;SDS011;3298;42.688;23.366;2022-09-03T05:24:58;5.20;;;4.80;;
6529;SDS011;3298;42.688;23.366;2022-09-03T05:27:24;5.57;;;5.07;;
6529;SDS011;3298;42.688;23.366;2022-09-03T05:29:51;5.10;;;4.70;;
6529;SDS011;3298;42.688;23.366;2022-09-03T05:32:18;4.20;;;3.90;;
6529;SDS011;3298;42.688;23.366;2022-09-03T05:34:45;4.90;;;4.60;;
6529;SDS011;3298;42.688;23.366;2022-09-03T05:37:11;5.23;;;4.83;;
6529;SDS011;3298;42.688;23.366;2022-09-03T05:39:38;5.47;;;5.00;;
6529;SDS011;3298;42.688;23.366;2022-09-03T05:42:06;5.43;;;5.03;;
6529;SDS011;3298;42.688;23.366;2022-09-03T05:44:33;4.83;;;4.53;;
6529;SDS011;3298;42.688;23.366;2022-09-03T05:47:01;5.60;;;5.20;;
6529;SDS011;3298;42.688;23.366;2022-09-03T05:49:27;6.10;;;5.07;;
6529;SDS011;3298;42.688;23.366;2022-09-03T05:51:54;6.10;;;4.63;;
6529;SDS011;3298;42.688;23.366;2022-09-03T05:54:21;5.00;;;4.53;;
6529;SDS011;3298;42.688;23.366;2022-09-03T05:56:48;5.40;;;5.00;;
6529;SDS011;3298;42.688;23.366;2022-09-03T05:59:16;5.30;;;4.90;;
6529;SDS011;3298;42.688;23.366;2022-09-03T06:01:44;4.60;;;4.30;;
6529;SDS011;3298;42.688;23.366;2022-09-03T06:04:12;6.80;;;5.00;;
6529;SDS011;3298;42.688;23.366;2022-09-03T06:06:41;5.07;;;4.67;;
6529;SDS011;3298;42.688;23.366;2022-09-03T06:09:10;4.77;;;4.47;;
6529;SDS011;3298;42.688;23.366;2022-09-03T06:11:40;6.10;;;4.90;;
6529;SDS011;3298;42.688;23.366;2022-09-03T06:14:08;5.83;;;4.53;;
6529;SDS011;3298;42.688;23.366;2022-09-03T06:16:38;4.87;;;4.47;;
6529;SDS011;3298;42.688;23.366;2022-09-03T06:19:06;5.17;;;4.57;;
6529;SDS011;3298;42.688;23.366;2022-09-03T06:21:35;5.87;;;5.37;;
6529;SDS011;3298;42.688;23.366;2022-09-03T06:24:04;7.67;;;5.17;;
6529;SDS011;3298;42.688;23.366;2022-09-03T06:26:31;5.80;;;5.27;;
6529;SDS011;3298;42.688;23.366;2022-09-03T06:28:58;5.50;;;5.07;;
6529;SDS011;3298;42.688;23.366;2022-09-03T06:31:26;5.17;;;4.77;;
6529;SDS011;3298;42.688;23.366;2022-09-03T06:33:55;5.53;;;5.00;;
6529;SDS011;3298;42.688;23.366;2022-09-03T06:36:22;4.37;;;3.97;;
6529;SDS011;3298;42.688;23.366;2022-09-03T06:38:51;5.13;;;4.73;;
6529;SDS011;3298;42.688;23.366;2022-09-03T06:41:19;5.50;;;5.07;;
6529;SDS011;3298;42.688;23.366;2022-09-03T06:43:49;5.70;;;4.70;;
6529;SDS011;3298;42.688;23.366;2022-09-03T06:46:17;5.40;;;5.00;;
6529;SDS011;3298;42.688;23.366;2022-09-03T06:48:45;5.80;;;5.30;;
6529;SDS011;3298;42.688;23.366;2022-09-03T06:51:13;4.93;;;4.53;;
6529;SDS011;3298;42.688;23.366;2022-09-03T06:53:42;5.17;;;4.77;;
6529;SDS011;3298;42.688;23.366;2022-09-03T06:56:11;5.27;;;4.77;;
6529;SDS011;3298;42.688;23.366;2022-09-03T06:58:40;5.50;;;5.03;;
6529;SDS011;3298;42.688;23.366;2022-09-03T07:01:08;5.40;;;4.97;;
6529;SDS011;3298;42.688;23.366;2022-09-03T07:03:37;6.67;;;5.03;;
6529;SDS011;3298;42.688;23.366;2022-09-03T07:06:06;4.83;;;4.53;;
6529;SDS011;3298;42.688;23.366;2022-09-03T07:08:35;5.17;;;4.73;;
6529;SDS011;3298;42.688;23.366;2022-09-03T07:11:03;6.13;;;4.93;;
6529;SDS011;3298;42.688;23.366;2022-09-03T07:13:33;5.57;;;5.17;;
6529;SDS011;3298;42.688;23.366;2022-09-03T07:16:00;4.50;;;4.20;;
6529;SDS011;3298;42.688;23.366;2022-09-03T07:18:28;4.73;;;4.43;;
6529;SDS011;3298;42.688;23.366;2022-09-03T07:20:58;5.60;;;5.13;;
6529;SDS011;3298;42.688;23.366;2022-09-03T07:23:26;6.27;;;4.97;;
6529;SDS011;3298;42.688;23.366;2022-09-03T07:25:55;7.33;;;4.30;;
6529;SDS011;3298;42.688;23.366;2022-09-03T07:28:24;4.93;;;4.53;;
6529;SDS011;3298;42.688;23.366;2022-09-03T07:30:51;4.53;;;4.13;;
6529;SDS011;3298;42.688;23.366;2022-09-03T07:33:19;5.13;;;4.67;;
6529;SDS011;3298;42.688;23.366;2022-09-03T07:35:46;5.37;;;4.87;;
6529;SDS011;3298;42.688;23.366;2022-09-03T07:38:15;5.30;;;4.90;;
6529;SDS011;3298;42.688;23.366;2022-09-03T07:40:44;5.13;;;4.83;;
6529;SDS011;3298;42.688;23.366;2022-09-03T07:43:12;5.80;;;5.07;;
6529;SDS011;3298;42.688;23.366;2022-09-03T07:45:39;4.40;;;4.10;;
6529;SDS011;3298;42.688;23.366;2022-09-03T07:48:10;4.20;;;3.90;;
6529;SDS011;3298;42.688;23.366;2022-09-03T07:50:36;4.73;;;4.33;;
6529;SDS011;3298;42.688;23.366;2022-09-03T07:53:04;4.80;;;4.50;;
6529;SDS011;3298;42.688;23.366;2022-09-03T07:55:32;4.03;;;3.80;;
6529;SDS011;3298;42.688;23.366;2022-09-03T07:57:59;4.57;;;4.27;;
6529;SDS011;3298;42.688;23.366;2022-09-03T08:00:27;5.13;;;4.77;;
6529;SDS011;3298;42.688;23.366;2022-09-03T08:02:54;5.20;;;4.33;;
6529;SDS011;3298;42.688;23.366;2022-09-03T08:05:20;4.97;;;4.07;;
6529;SDS011;3298;42.688;23.366;2022-09-03T08:07:47;4.97;;;4.57;;
6529;SDS011;3298;42.688;23.366;2022-09-03T08:10:15;4.17;;;3.87;;
6529;SDS011;3298;42.688;23.366;2022-09-03T08:12:42;4.10;;;3.87;;
6529;SDS011;3298;42.688;23.366;2022-09-03T08:15:08;4.93;;;4.60;;
6529;SDS011;3298;42.688;23.366;2022-09-03T08:17:37;4.80;;;4.50;;
6529;SDS011;3298;42.688;23.366;2022-09-03T08:20:04;4.97;;;4.67;;
6529;SDS011;3298;42.688;23.366;2022-09-03T08:22:32;4.40;;;4.10;;
6529;SDS011;3298;42.688;23.366;2022-09-03T08:24:58;4.33;;;4.03;;
6529;SDS011;3298;42.688;23.366;2022-09-03T08:27:25;4.23;;;4.03;;
6529;SDS011;3298;42.688;23.366;2022-09-03T08:29:53;4.80;;;4.37;;
6529;SDS011;3298;42.688;23.366;2022-09-03T08:32:19;3.87;;;3.67;;
6529;SDS011;3298;42.688;23.366;2022-09-03T08:34:48;4.10;;;3.80;;
6529;SDS011;3298;42.688;23.366;2022-09-03T08:37:16;3.77;;;3.57;;
6529;SDS011;3298;42.688;23.366;2022-09-03T08:39:43;5.57;;;4.43;;
6529;SDS011;3298;42.688;23.366;2022-09-03T08:42:18;4.37;;;3.97;;
6529;SDS011;3298;42.688;23.366;2022-09-03T08:44:54;4.40;;;4.10;;
6529;SDS011;3298;42.688;23.366;2022-09-03T08:47:25;3.57;;;3.17;;
6529;SDS011;3298;42.688;23.366;2022-09-03T08:49:57;3.30;;;3.10;;
6529;SDS011;3298;42.688;23.366;2022-09-03T08:52:28;3.97;;;3.77;;
6529;SDS011;3298;42.688;23.366;2022-09-03T08:55:00;3.80;;;3.50;;
6529;SDS011;3298;42.688;23.366;2022-09-03T08:57:39;4.37;;;4.07;;
6529;SDS011;3298;42.688;23.366;2022-09-03T09:00:09;3.93;;;3.47;;
6529;SDS011;3298;42.688;23.366;2022-09-03T09:02:38;3.73;;;3.53;;
6529;SDS011;3298;42.688;23.366;2022-09-03T09:05:21;4.00;;;3.70;;
6529;SDS011;3298;42.688;23.366;2022-09-03T09:07:52;4.17;;;3.27;;
6529;SDS011;3298;42.688;23.366;2022-09-03T09:10:26;3.77;;;3.47;;
6529;SDS011;3298;42.688;23.366;2022-09-03T09:13:03;3.27;;;3.07;;
6529;SDS011;3298;42.688;23.366;2022-09-03T09:15:42;3.97;;;3.67;;
6529;SDS011;3298;42.688;23.366;2022-09-03T09:18:18;3.83;;;3.63;;
6529;SDS011;3298;42.688;23.366;2022-09-03T09:20:56;4.60;;;4.10;;
6529;SDS011;3298;42.688;23.366;2022-09-03T09:23:33;3.70;;;3.50;;
6529;SDS011;3298;42.688;23.366;2022-09-03T09:26:06;3.50;;;3.30;;
6529;SDS011;3298;42.688;23.366;2022-09-03T09:28:37;3.87;;;3.67;;
6529;SDS011;3298;42.688;23.366;2022-09-03T09:31:05;3.33;;;3.13;;
6529;SDS011;3298;42.688;23.366;2022-09-03T09:33:36;3.03;;;2.93;;
6529;SDS011;3298;42.688;23.366;2022-09-03T09:36:05;7.93;;;3.93;;
6529;SDS011;3298;42.688;23.366;2022-09-03T09:38:36;3.43;;;3.23;;
6529;SDS011;3298;42.688;23.366;2022-09-03T09:41:08;3.70;;;3.40;;
6529;SDS011;3298;42.688;23.366;2022-09-03T09:43:36;4.23;;;4.03;;
6529;SDS011;3298;42.688;23.366;2022-09-03T09:46:08;3.80;;;3.60;;
6529;SDS011;3298;42.688;23.366;2022-09-03T09:48:38;3.97;;;3.77;;
6529;SDS011;3298;42.688;23.366;2022-09-03T09:51:19;3.53;;;3.30;;
6529;SDS011;3298;42.688;23.366;2022-09-03T09:53:48;3.80;;;3.60;;
6529;SDS011;3298;42.688;23.366;2022-09-03T09:56:25;3.53;;;3.33;;
6529;SDS011;3298;42.688;23.366;2022-09-03T09:59:00;3.37;;;3.17;;
6529;SDS011;3298;42.688;23.366;2022-09-03T10:01:28;3.93;;;3.73;;
6529;SDS011;3298;42.688;23.366;2022-09-03T10:03:56;4.20;;;3.90;;
6529;SDS011;3298;42.688;23.366;2022-09-03T10:06:27;4.03;;;3.73;;
6529;SDS011;3298;42.688;23.366;2022-09-03T10:09:14;5.83;;;3.50;;
6529;SDS011;3298;42.688;23.366;2022-09-03T10:11:45;3.70;;;3.50;;
6529;SDS011;3298;42.688;23.366;2022-09-03T10:14:16;3.10;;;3.00;;
6529;SDS011;3298;42.688;23.366;2022-09-03T10:16:49;3.50;;;3.30;;
6529;SDS011;3298;42.688;23.366;2022-09-03T10:19:23;3.27;;;3.07;;
6529;SDS011;3298;42.688;23.366;2022-09-03T10:22:02;4.20;;;3.37;;
6529;SDS011;3298;42.688;23.366;2022-09-03T10:24:37;3.57;;;3.27;;
6529;SDS011;3298;42.688;23.366;2022-09-03T10:27:13;2.87;;;2.77;;
6529;SDS011;3298;42.688;23.366;2022-09-03T10:29:42;3.47;;;3.20;;
6529;SDS011;3298;42.688;23.366;2022-09-03T10:32:13;3.50;;;3.27;;
6529;SDS011;3298;42.688;23.366;2022-09-03T10:34:51;2.93;;;2.83;;
6529;SDS011;3298;42.688;23.366;2022-09-03T10:37:28;3.90;;;3.70;;
6529;SDS011;3298;42.688;23.366;2022-09-03T10:40:09;3.50;;;3.30;;
6529;SDS011;3298;42.688;23.366;2022-09-03T10:42:44;3.57;;;3.37;;
6529;SDS011;3298;42.688;23.366;2022-09-03T10:45:20;3.37;;;3.17;;
6529;SDS011;3298;42.688;23.366;2022-09-03T10:48:10;3.10;;;2.93;;
6529;SDS011;3298;42.688;23.366;2022-09-03T10:50:50;3.33;;;3.13;;
6529;SDS011;3298;42.688;23.366;2022-09-03T10:53:38;2.87;;;2.67;;
6529;SDS011;3298;42.688;23.366;2022-09-03T10:56:18;3.33;;;3.13;;
6529;SDS011;3298;42.688;23.366;2022-09-03T10:58:54;3.30;;;2.87;;
6529;SDS011;3298;42.688;23.366;2022-09-03T11:01:33;2.60;;;2.50;;
6529;SDS011;3298;42.688;23.366;2022-09-03T11:04:12;2.70;;;2.60;;
6529;SDS011;3298;42.688;23.366;2022-09-03T11:06:53;2.53;;;2.33;;
6529;SDS011;3298;42.688;23.366;2022-09-03T11:09:26;2.60;;;2.50;;
6529;SDS011;3298;42.688;23.366;2022-09-03T11:12:02;3.03;;;2.93;;
6529;SDS011;3298;42.688;23.366;2022-09-03T11:14:33;3.13;;;2.93;;
6529;SDS011;3298;42.688;23.366;2022-09-03T11:17:05;2.70;;;2.50;;
6529;SDS011;3298;42.688;23.366;2022-09-03T11:19:40;4.27;;;2.57;;
6529;SDS011;3298;42.688;23.366;2022-09-03T11:22:14;2.93;;;2.83;;
6529;SDS011;3298;42.688;23.366;2022-09-03T11:24:44;2.60;;;2.50;;
6529;SDS011;3298;42.688;23.366;2022-09-03T11:27:19;3.27;;;3.07;;
6529;SDS011;3298;42.688;23.366;2022-09-03T11:29:57;2.27;;;2.07;;
6529;SDS011;3298;42.688;23.366;2022-09-03T11:32:28;2.70;;;2.60;;
6529;SDS011;3298;42.688;23.366;2022-09-03T11:35:12;2.67;;;2.30;;
6529;SDS011;3298;42.688;23.366;2022-09-03T11:37:45;2.37;;;2.27;;
6529;SDS011;3298;42.688;23.366;2022-09-03T11:40:19;2.53;;;2.43;;
6529;SDS011;3298;42.688;23.366;2022-09-03T11:43:03;2.60;;;2.50;;
6529;SDS011;3298;42.688;23.366;2022-09-03T11:45:35;2.80;;;2.70;;
6529;SDS011;3298;42.688;23.366;2022-09-03T11:48:15;2.70;;;2.50;;
6529;SDS011;3298;42.688;23.366;2022-09-03T11:50:50;2.77;;;2.67;;
6529;SDS011;3298;42.688;23.366;2022-09-03T11:53:23;2.77;;;2.67;;
6529;SDS011;3298;42.688;23.366;2022-09-03T11:55:58;2.73;;;2.63;;
6529;SDS011;3298;42.688;23.366;2022-09-03T11:58:27;3.10;;;2.90;;
6529;SDS011;3298;42.688;23.366;2022-09-03T12:00:57;2.63;;;2.53;;
6529;SDS011;3298;42.688;23.366;2022-09-03T12:03:27;2.70;;;2.60;;
6529;SDS011;3298;42.688;23.366;2022-09-03T12:06:11;2.60;;;2.50;;
6529;SDS011;3298;42.688;23.366;2022-09-03T12:11:57;2.40;;;2.30;;
6529;SDS011;3298;42.688;23.366;2022-09-03T12:14:35;2.47;;;2.37;;
6529;SDS011;3298;42.688;23.366;2022-09-03T12:17:13;2.60;;;2.50;;
6529;SDS011;3298;42.688;23.366;2022-09-03T12:19:48;2.40;;;2.30;;
6529;SDS011;3298;42.688;23.366;2022-09-03T12:22:18;2.60;;;2.50;;
6529;SDS011;3298;42.688;23.366;2022-09-03T12:24:46;3.03;;;2.33;;
6529;SDS011;3298;42.688;23.366;2022-09-03T12:27:17;2.90;;;2.80;;
6529;SDS011;3298;42.688;23.366;2022-09-03T12:29:50;2.67;;;2.47;;
6529;SDS011;3298;42.688;23.366;2022-09-03T12:32:24;3.43;;;3.20;;
6529;SDS011;3298;42.688;23.366;2022-09-03T12:34:52;3.07;;;2.87;;
6529;SDS011;3298;42.688;23.366;2022-09-03T12:37:19;3.07;;;2.87;;
6529;SDS011;3298;42.688;23.366;2022-09-03T12:39:51;2.40;;;2.17;;
6529;SDS011;3298;42.688;23.366;2022-09-03T12:42:21;3.30;;;3.07;;
6529;SDS011;3298;42.688;23.366;2022-09-03T12:44:51;3.23;;;2.93;;
6529;SDS011;3298;42.688;23.366;2022-09-03T12:47:19;3.40;;;3.23;;
6529;SDS011;3298;42.688;23.366;2022-09-03T12:49:47;3.97;;;3.67;;
6529;SDS011;3298;42.688;23.366;2022-09-03T12:52:16;2.97;;;2.87;;
6529;SDS011;3298;42.688;23.366;2022-09-03T12:54:51;2.93;;;2.80;;
6529;SDS011;3298;42.688;23.366;2022-09-03T12:57:23;3.93;;;3.00;;
6529;SDS011;3298;42.688;23.366;2022-09-03T12:59:57;3.00;;;2.80;;
6529;SDS011;3298;42.688;23.366;2022-09-03T13:02:27;3.00;;;2.90;;
6529;SDS011;3298;42.688;23.366;2022-09-03T13:05:01;2.90;;;2.80;;
6529;SDS011;3298;42.688;23.366;2022-09-03T13:07:30;2.60;;;2.50;;
6529;SDS011;3298;42.688;23.366;2022-09-03T13:10:02;2.57;;;2.47;;
6529;SDS011;3298;42.688;23.366;2022-09-03T13:12:40;2.23;;;2.13;;
6529;SDS011;3298;42.688;23.366;2022-09-03T13:15:16;2.20;;;2.10;;
6529;SDS011;3298;42.688;23.366;2022-09-03T13:17:56;1.83;;;1.73;;
6529;SDS011;3298;42.688;23.366;2022-09-03T13:20:46;2.10;;;2.00;;
6529;SDS011;3298;42.688;23.366;2022-09-03T13:23:33;2.30;;;2.20;;
6529;SDS011;3298;42.688;23.366;2022-09-03T13:26:13;1.97;;;1.87;;
6529;SDS011;3298;42.688;23.366;2022-09-03T13:28:57;2.13;;;2.03;;
6529;SDS011;3298;42.688;23.366;2022-09-03T13:31:37;1.87;;;1.77;;
6529;SDS011;3298;42.688;23.366;2022-09-03T13:34:10;2.37;;;2.17;;
6529;SDS011;3298;42.688;23.366;2022-09-03T13:36:46;2.17;;;2.07;;
6529;SDS011;3298;42.688;23.366;2022-09-03T13:39:19;4.27;;;1.60;;
6529;SDS011;3298;42.688;23.366;2022-09-03T13:41:52;1.70;;;1.70;;
6529;SDS011;3298;42.688;23.366;2022-09-03T13:44:30;2.23;;;2.13;;
6529;SDS011;3298;42.688;23.366;2022-09-03T13:47:07;2.20;;;2.10;;
6529;SDS011;3298;42.688;23.366;2022-09-03T13:49:39;1.73;;;1.70;;
6529;SDS011;3298;42.688;23.366;2022-09-03T13:52:30;2.20;;;2.10;;
6529;SDS011;3298;42.688;23.366;2022-09-03T13:55:07;1.87;;;1.77;;
6529;SDS011;3298;42.688;23.366;2022-09-03T13:57:39;1.83;;;1.73;;
6529;SDS011;3298;42.688;23.366;2022-09-03T14:00:23;2.17;;;1.80;;
6529;SDS011;3298;42.688;23.366;2022-09-03T14:02:56;1.80;;;1.70;;
6529;SDS011;3298;42.688;23.366;2022-09-03T14:05:34;1.70;;;1.60;;
6529;SDS011;3298;42.688;23.366;2022-09-03T14:08:11;1.53;;;1.50;;
6529;SDS011;3298;42.688;23.366;2022-09-03T14:10:54;1.80;;;1.70;;
6529;SDS011;3298;42.688;23.366;2022-09-03T14:13:28;1.77;;;1.70;;
6529;SDS011;3298;42.688;23.366;2022-09-03T14:16:06;2.13;;;2.03;;
6529;SDS011;3298;42.688;23.366;2022-09-03T14:18:41;2.27;;;2.17;;
6529;SDS011;3298;42.688;23.366;2022-09-03T14:21:15;2.20;;;2.10;;
6529;SDS011;3298;42.688;23.366;2022-09-03T14:23:46;1.80;;;1.70;;
6529;SDS011;3298;42.688;23.366;2022-09-03T14:26:17;2.40;;;2.30;;
6529;SDS011;3298;42.688;23.366;2022-09-03T14:28:57;2.00;;;1.90;;
6529;SDS011;3298;42.688;23.366;2022-09-03T14:31:29;2.00;;;1.90;;
6529;SDS011;3298;42.688;23.366;2022-09-03T14:34:17;2.37;;;2.27;;
6529;SDS011;3298;42.688;23.366;2022-09-03T14:36:57;2.47;;;2.37;;
6529;SDS011;3298;42.688;23.366;2022-09-03T14:39:33;2.40;;;2.20;;
6529;SDS011;3298;42.688;23.366;2022-09-03T14:42:17;1.77;;;1.70;;
6529;SDS011;3298;42.688;23.366;2022-09-03T14:45:21;1.90;;;1.80;;
6529;SDS011;3298;42.688;23.366;2022-09-03T14:48:03;2.10;;;2.00;;
6529;SDS011;3298;42.688;23.366;2022-09-03T14:50:51;1.90;;;1.80;;
6529;SDS011;3298;42.688;23.366;2022-09-03T14:53:39;4.90;;;1.80;;
6529;SDS011;3298;42.688;23.366;2022-09-03T14:56:27;1.73;;;1.63;;
6529;SDS011;3298;42.688;23.366;2022-09-03T15:02:06;2.00;;;1.90;;
6529;SDS011;3298;42.688;23.366;2022-09-03T15:04:56;2.37;;;2.27;;
6529;SDS011;3298;42.688;23.366;2022-09-03T15:07:38;2.13;;;2.03;;
6529;SDS011;3298;42.688;23.366;2022-09-03T15:10:11;2.27;;;2.17;;
6529;SDS011;3298;42.688;23.366;2022-09-03T15:12:45;2.57;;;2.47;;
6529;SDS011;3298;42.688;23.366;2022-09-03T15:15:17;2.33;;;2.20;;
6529;SDS011;3298;42.688;23.366;2022-09-03T15:20:43;2.50;;;2.33;;
6529;SDS011;3298;42.688;23.366;2022-09-03T15:23:19;3.30;;;2.70;;
6529;SDS011;3298;42.688;23.366;2022-09-03T15:28:55;2.33;;;2.17;;
6529;SDS011;3298;42.688;23.366;2022-09-03T15:31:36;2.30;;;2.20;;
6529;SDS011;3298;42.688;23.366;2022-09-03T15:34:14;2.47;;;2.37;;
6529;SDS011;3298;42.688;23.366;2022-09-03T15:36:58;2.80;;;2.60;;
6529;SDS011;3298;42.688;23.366;2022-09-03T15:39:30;3.20;;;2.87;;
6529;SDS011;3298;42.688;23.366;2022-09-03T15:42:00;3.00;;;2.70;;
6529;SDS011;3298;42.688;23.366;2022-09-03T15:44:33;3.13;;;2.93;;
6529;SDS011;3298;42.688;23.366;2022-09-03T15:47:05;3.60;;;3.30;;